Terminal Aerodrome Forecast
Issued by NWS

Home | Current Version | Previous Version | Text Only | Print | Product List | Glossary On
Versions: 1 2 3 4 5 6 7 8 9 10 11 12 13 14 15 16 17 18 19 20 21 22 23 24 25
035
FTUS43 KPAH 142335
TAFCGI
TAF
KCGI 142335Z 1500/1524 13003KT P6SM OVC100
     FM150300 16005KT P6SM OVC050
     FM151100 18009KT P6SM VCSH OVC040
     FM151400 20010KT 6SM -SHRA BR BKN025 OVC040
     FM151800 24009KT P6SM OVC015=

USA.gov is the U.S. government's official web portal to all federal, state and local government web resources and services.